sensor_id;sensor_type;location;lat;lon;timestamp;P1;durP1;ratioP1;P2;durP2;ratioP2
19617;SDS011;9956;51.006;13.670;2022-11-22T00:02:08;26.70;;;17.02;;
19617;SDS011;9956;51.006;13.670;2022-11-22T00:07:08;32.85;;;19.02;;
19617;SDS011;9956;51.006;13.670;2022-11-22T00:12:09;40.08;;;22.48;;
19617;SDS011;9956;51.006;13.670;2022-11-22T00:17:09;36.50;;;21.35;;
19617;SDS011;9956;51.006;13.670;2022-11-22T00:22:09;41.35;;;22.02;;
19617;SDS011;9956;51.006;13.670;2022-11-22T00:27:10;33.35;;;21.40;;
19617;SDS011;9956;51.006;13.670;2022-11-22T00:32:11;28.45;;;19.45;;
19617;SDS011;9956;51.006;13.670;2022-11-22T00:37:12;34.42;;;21.30;;
19617;SDS011;9956;51.006;13.670;2022-11-22T00:42:12;37.63;;;22.00;;
19617;SDS011;9956;51.006;13.670;2022-11-22T00:47:13;34.38;;;21.83;;
19617;SDS011;9956;51.006;13.670;2022-11-22T00:52:13;39.65;;;22.70;;
19617;SDS011;9956;51.006;13.670;2022-11-22T00:57:14;42.10;;;23.83;;
19617;SDS011;9956;51.006;13.670;2022-11-22T01:02:14;43.35;;;24.42;;
19617;SDS011;9956;51.006;13.670;2022-11-22T01:07:14;44.25;;;24.92;;
19617;SDS011;9956;51.006;13.670;2022-11-22T01:12:15;36.13;;;23.52;;
19617;SDS011;9956;51.006;13.670;2022-11-22T01:17:16;36.80;;;21.08;;
19617;SDS011;9956;51.006;13.670;2022-11-22T01:22:16;34.65;;;22.10;;
19617;SDS011;9956;51.006;13.670;2022-11-22T01:27:17;37.33;;;22.83;;
19617;SDS011;9956;51.006;13.670;2022-11-22T01:32:17;33.65;;;22.65;;
19617;SDS011;9956;51.006;13.670;2022-11-22T01:37:18;37.53;;;23.05;;
19617;SDS011;9956;51.006;13.670;2022-11-22T01:42:18;35.85;;;23.33;;
19617;SDS011;9956;51.006;13.670;2022-11-22T01:47:19;37.85;;;22.85;;
19617;SDS011;9956;51.006;13.670;2022-11-22T01:52:21;36.90;;;24.08;;
19617;SDS011;9956;51.006;13.670;2022-11-22T01:57:25;34.00;;;22.67;;
19617;SDS011;9956;51.006;13.670;2022-11-22T02:02:32;35.55;;;22.85;;
19617;SDS011;9956;51.006;13.670;2022-11-22T02:07:34;32.22;;;20.92;;
19617;SDS011;9956;51.006;13.670;2022-11-22T02:12:40;37.42;;;23.15;;
19617;SDS011;9956;51.006;13.670;2022-11-22T02:17:41;32.25;;;20.70;;
19617;SDS011;9956;51.006;13.670;2022-11-22T02:22:53;39.08;;;23.60;;
19617;SDS011;9956;51.006;13.670;2022-11-22T02:27:56;35.08;;;23.48;;
19617;SDS011;9956;51.006;13.670;2022-11-22T02:32:56;32.55;;;21.35;;
19617;SDS011;9956;51.006;13.670;2022-11-22T02:38:18;32.67;;;21.75;;
19617;SDS011;9956;51.006;13.670;2022-11-22T02:43:36;34.63;;;21.85;;
19617;SDS011;9956;51.006;13.670;2022-11-22T02:48:41;32.20;;;20.33;;
19617;SDS011;9956;51.006;13.670;2022-11-22T02:53:43;31.40;;;20.38;;
19617;SDS011;9956;51.006;13.670;2022-11-22T02:58:43;37.22;;;24.35;;
19617;SDS011;9956;51.006;13.670;2022-11-22T03:03:44;33.22;;;21.67;;
19617;SDS011;9956;51.006;13.670;2022-11-22T03:08:45;36.97;;;22.77;;
19617;SDS011;9956;51.006;13.670;2022-11-22T03:13:48;39.22;;;22.70;;
19617;SDS011;9956;51.006;13.670;2022-11-22T03:18:48;38.33;;;23.25;;
19617;SDS011;9956;51.006;13.670;2022-11-22T03:23:49;39.17;;;22.10;;
19617;SDS011;9956;51.006;13.670;2022-11-22T03:28:50;39.75;;;24.70;;
19617;SDS011;9956;51.006;13.670;2022-11-22T03:33:50;38.97;;;23.52;;
19617;SDS011;9956;51.006;13.670;2022-11-22T03:38:51;42.92;;;24.52;;
19617;SDS011;9956;51.006;13.670;2022-11-22T03:43:51;40.28;;;24.20;;
19617;SDS011;9956;51.006;13.670;2022-11-22T03:48:52;46.97;;;25.75;;
19617;SDS011;9956;51.006;13.670;2022-11-22T03:53:52;41.95;;;25.00;;
19617;SDS011;9956;51.006;13.670;2022-11-22T03:58:53;44.22;;;24.00;;
19617;SDS011;9956;51.006;13.670;2022-11-22T04:03:53;44.85;;;24.35;;
19617;SDS011;9956;51.006;13.670;2022-11-22T04:08:53;44.53;;;27.77;;
19617;SDS011;9956;51.006;13.670;2022-11-22T04:13:54;43.75;;;26.95;;
19617;SDS011;9956;51.006;13.670;2022-11-22T04:19:13;39.58;;;24.52;;
19617;SDS011;9956;51.006;13.670;2022-11-22T04:24:13;37.65;;;25.67;;
19617;SDS011;9956;51.006;13.670;2022-11-22T04:29:33;39.47;;;24.98;;
19617;SDS011;9956;51.006;13.670;2022-11-22T04:34:33;43.70;;;28.35;;
19617;SDS011;9956;51.006;13.670;2022-11-22T04:39:34;45.85;;;30.80;;
19617;SDS011;9956;51.006;13.670;2022-11-22T04:44:35;40.88;;;25.40;;
19617;SDS011;9956;51.006;13.670;2022-11-22T04:49:41;37.75;;;25.65;;
19617;SDS011;9956;51.006;13.670;2022-11-22T04:54:42;36.17;;;23.75;;
19617;SDS011;9956;51.006;13.670;2022-11-22T04:59:42;37.50;;;25.20;;
19617;SDS011;9956;51.006;13.670;2022-11-22T05:04:43;38.20;;;23.33;;
19617;SDS011;9956;51.006;13.670;2022-11-22T05:09:43;33.75;;;21.55;;
19617;SDS011;9956;51.006;13.670;2022-11-22T05:14:44;34.95;;;21.98;;
19617;SDS011;9956;51.006;13.670;2022-11-22T05:19:44;42.95;;;25.80;;
19617;SDS011;9956;51.006;13.670;2022-11-22T05:24:44;35.30;;;23.15;;
19617;SDS011;9956;51.006;13.670;2022-11-22T05:29:45;36.45;;;22.00;;
19617;SDS011;9956;51.006;13.670;2022-11-22T05:34:45;37.60;;;22.35;;
19617;SDS011;9956;51.006;13.670;2022-11-22T05:39:46;33.65;;;20.77;;
19617;SDS011;9956;51.006;13.670;2022-11-22T05:44:46;33.63;;;21.08;;
19617;SDS011;9956;51.006;13.670;2022-11-22T05:49:47;38.70;;;23.83;;
19617;SDS011;9956;51.006;13.670;2022-11-22T05:54:47;32.50;;;21.48;;
19617;SDS011;9956;51.006;13.670;2022-11-22T05:59:48;33.30;;;22.27;;
19617;SDS011;9956;51.006;13.670;2022-11-22T06:04:48;34.50;;;21.45;;
19617;SDS011;9956;51.006;13.670;2022-11-22T06:09:48;33.10;;;23.10;;
19617;SDS011;9956;51.006;13.670;2022-11-22T06:14:49;39.88;;;28.45;;
19617;SDS011;9956;51.006;13.670;2022-11-22T06:19:49;38.25;;;27.90;;
19617;SDS011;9956;51.006;13.670;2022-11-22T06:24:50;53.88;;;32.85;;
19617;SDS011;9956;51.006;13.670;2022-11-22T06:29:50;41.25;;;27.85;;
19617;SDS011;9956;51.006;13.670;2022-11-22T06:34:50;37.97;;;25.35;;
19617;SDS011;9956;51.006;13.670;2022-11-22T06:39:51;33.28;;;21.98;;
19617;SDS011;9956;51.006;13.670;2022-11-22T06:44:51;32.40;;;20.90;;
19617;SDS011;9956;51.006;13.670;2022-11-22T06:49:52;29.10;;;18.27;;
19617;SDS011;9956;51.006;13.670;2022-11-22T06:54:52;28.40;;;18.70;;
19617;SDS011;9956;51.006;13.670;2022-11-22T06:59:53;37.65;;;25.30;;
19617;SDS011;9956;51.006;13.670;2022-11-22T07:04:53;32.92;;;20.98;;
19617;SDS011;9956;51.006;13.670;2022-11-22T07:09:54;34.45;;;21.95;;
19617;SDS011;9956;51.006;13.670;2022-11-22T07:14:54;33.85;;;25.67;;
19617;SDS011;9956;51.006;13.670;2022-11-22T07:19:55;30.45;;;23.13;;
19617;SDS011;9956;51.006;13.670;2022-11-22T07:24:55;64.18;;;42.60;;
19617;SDS011;9956;51.006;13.670;2022-11-22T07:29:55;36.25;;;24.50;;
19617;SDS011;9956;51.006;13.670;2022-11-22T07:34:56;27.90;;;21.42;;
19617;SDS011;9956;51.006;13.670;2022-11-22T07:39:56;28.48;;;20.00;;
19617;SDS011;9956;51.006;13.670;2022-11-22T07:44:57;46.72;;;34.47;;
19617;SDS011;9956;51.006;13.670;2022-11-22T07:50:09;33.50;;;23.35;;
19617;SDS011;9956;51.006;13.670;2022-11-22T07:55:09;26.73;;;20.35;;
19617;SDS011;9956;51.006;13.670;2022-11-22T08:00:19;25.77;;;18.10;;
19617;SDS011;9956;51.006;13.670;2022-11-22T08:05:20;22.08;;;17.48;;
19617;SDS011;9956;51.006;13.670;2022-11-22T08:10:42;22.73;;;15.95;;
19617;SDS011;9956;51.006;13.670;2022-11-22T08:15:42;21.40;;;16.52;;
19617;SDS011;9956;51.006;13.670;2022-11-22T08:20:44;21.60;;;15.80;;
19617;SDS011;9956;51.006;13.670;2022-11-22T08:25:48;18.92;;;14.15;;
19617;SDS011;9956;51.006;13.670;2022-11-22T08:30:48;16.88;;;13.77;;
19617;SDS011;9956;51.006;13.670;2022-11-22T08:35:49;16.58;;;14.02;;
19617;SDS011;9956;51.006;13.670;2022-11-22T08:40:50;16.70;;;14.15;;
19617;SDS011;9956;51.006;13.670;2022-11-22T08:45:54;18.52;;;13.32;;
19617;SDS011;9956;51.006;13.670;2022-11-22T08:50:57;15.85;;;12.65;;
19617;SDS011;9956;51.006;13.670;2022-11-22T08:55:59;13.05;;;11.25;;
19617;SDS011;9956;51.006;13.670;2022-11-22T09:01:04;14.95;;;12.38;;
19617;SDS011;9956;51.006;13.670;2022-11-22T09:06:10;13.73;;;12.20;;
19617;SDS011;9956;51.006;13.670;2022-11-22T09:11:14;15.48;;;12.13;;
19617;SDS011;9956;51.006;13.670;2022-11-22T09:16:18;13.10;;;10.77;;
19617;SDS011;9956;51.006;13.670;2022-11-22T09:21:19;14.50;;;11.88;;
19617;SDS011;9956;51.006;13.670;2022-11-22T09:26:20;13.23;;;11.32;;
19617;SDS011;9956;51.006;13.670;2022-11-22T09:31:23;10.95;;;9.80;;
19617;SDS011;9956;51.006;13.670;2022-11-22T09:36:24;11.35;;;9.60;;
19617;SDS011;9956;51.006;13.670;2022-11-22T09:52:37;10.00;;;9.00;;
19617;SDS011;9956;51.006;13.670;2022-11-22T10:13:58;9.38;;;8.38;;
19617;SDS011;9956;51.006;13.670;2022-11-22T10:19:22;9.80;;;8.80;;
19617;SDS011;9956;51.006;13.670;2022-11-22T10:24:30;9.68;;;8.68;;
19617;SDS011;9956;51.006;13.670;2022-11-22T10:40:04;12.25;;;11.05;;
19617;SDS011;9956;51.006;13.670;2022-11-22T10:56:11;9.25;;;8.35;;
19617;SDS011;9956;51.006;13.670;2022-11-22T11:06:31;10.95;;;9.85;;
19617;SDS011;9956;51.006;13.670;2022-11-22T11:11:35;9.65;;;8.75;;
19617;SDS011;9956;51.006;13.670;2022-11-22T11:16:38;9.80;;;8.90;;
19617;SDS011;9956;51.006;13.670;2022-11-22T11:21:38;9.77;;;8.77;;
19617;SDS011;9956;51.006;13.670;2022-11-22T11:26:39;9.85;;;8.95;;
19617;SDS011;9956;51.006;13.670;2022-11-22T11:32:03;9.60;;;8.60;;
19617;SDS011;9956;51.006;13.670;2022-11-22T11:37:19;9.43;;;8.00;;
19617;SDS011;9956;51.006;13.670;2022-11-22T11:42:25;9.13;;;8.15;;
19617;SDS011;9956;51.006;13.670;2022-11-22T11:47:31;8.57;;;7.78;;
19617;SDS011;9956;51.006;13.670;2022-11-22T11:52:32;10.82;;;9.73;;
19617;SDS011;9956;51.006;13.670;2022-11-22T11:57:33;11.35;;;10.18;;
19617;SDS011;9956;51.006;13.670;2022-11-22T12:02:37;11.52;;;10.23;;
19617;SDS011;9956;51.006;13.670;2022-11-22T12:07:40;12.48;;;10.07;;
19617;SDS011;9956;51.006;13.670;2022-11-22T12:12:48;11.23;;;9.95;;
19617;SDS011;9956;51.006;13.670;2022-11-22T12:17:56;12.40;;;11.02;;
19617;SDS011;9956;51.006;13.670;2022-11-22T12:23:14;15.07;;;13.15;;
19617;SDS011;9956;51.006;13.670;2022-11-22T12:28:31;14.10;;;12.43;;
19617;SDS011;9956;51.006;13.670;2022-11-22T12:33:36;15.00;;;11.80;;
19617;SDS011;9956;51.006;13.670;2022-11-22T12:38:41;13.88;;;12.43;;
19617;SDS011;9956;51.006;13.670;2022-11-22T12:43:44;15.07;;;11.95;;
19617;SDS011;9956;51.006;13.670;2022-11-22T12:48:53;15.00;;;12.25;;
19617;SDS011;9956;51.006;13.670;2022-11-22T12:53:57;15.68;;;13.45;;
19617;SDS011;9956;51.006;13.670;2022-11-22T13:09:14;17.20;;;13.27;;
19617;SDS011;9956;51.006;13.670;2022-11-22T13:20:14;14.13;;;11.73;;
19617;SDS011;9956;51.006;13.670;2022-11-22T13:51:52;13.73;;;11.35;;
19617;SDS011;9956;51.006;13.670;2022-11-22T13:56:58;14.07;;;11.98;;
19617;SDS011;9956;51.006;13.670;2022-11-22T14:02:01;13.77;;;10.73;;
19617;SDS011;9956;51.006;13.670;2022-11-22T14:17:22;12.32;;;9.27;;
19617;SDS011;9956;51.006;13.670;2022-11-22T14:27:44;14.73;;;11.50;;
19617;SDS011;9956;51.006;13.670;2022-11-22T14:32:52;24.35;;;16.02;;
19617;SDS011;9956;51.006;13.670;2022-11-22T14:37:57;16.63;;;13.05;;
19617;SDS011;9956;51.006;13.670;2022-11-22T14:43:00;12.85;;;10.10;;
19617;SDS011;9956;51.006;13.670;2022-11-22T14:48:04;27.02;;;21.45;;
19617;SDS011;9956;51.006;13.670;2022-11-22T14:58:37;15.38;;;13.73;;
19617;SDS011;9956;51.006;13.670;2022-11-22T15:09:00;16.02;;;13.55;;
19617;SDS011;9956;51.006;13.670;2022-11-22T15:19:54;19.85;;;15.30;;
19617;SDS011;9956;51.006;13.670;2022-11-22T15:24:56;22.27;;;17.63;;
19617;SDS011;9956;51.006;13.670;2022-11-22T15:30:14;17.75;;;14.65;;
19617;SDS011;9956;51.006;13.670;2022-11-22T15:35:17;22.80;;;17.45;;
19617;SDS011;9956;51.006;13.670;2022-11-22T15:40:33;16.73;;;14.15;;
19617;SDS011;9956;51.006;13.670;2022-11-22T15:45:42;17.48;;;14.20;;
19617;SDS011;9956;51.006;13.670;2022-11-22T15:51:03;16.30;;;13.85;;
19617;SDS011;9956;51.006;13.670;2022-11-22T16:01:16;20.33;;;16.35;;
19617;SDS011;9956;51.006;13.670;2022-11-22T16:06:27;16.58;;;13.93;;
19617;SDS011;9956;51.006;13.670;2022-11-22T16:11:36;18.95;;;14.93;;
19617;SDS011;9956;51.006;13.670;2022-11-22T16:16:54;22.25;;;16.95;;
19617;SDS011;9956;51.006;13.670;2022-11-22T16:21:58;20.25;;;16.88;;
19617;SDS011;9956;51.006;13.670;2022-11-22T16:27:01;21.38;;;16.65;;
19617;SDS011;9956;51.006;13.670;2022-11-22T16:32:07;30.52;;;22.00;;
19617;SDS011;9956;51.006;13.670;2022-11-22T16:37:25;27.55;;;21.30;;
19617;SDS011;9956;51.006;13.670;2022-11-22T16:42:27;26.23;;;18.38;;
19617;SDS011;9956;51.006;13.670;2022-11-22T16:47:27;26.48;;;19.50;;
19617;SDS011;9956;51.006;13.670;2022-11-22T16:52:28;24.65;;;18.40;;
19617;SDS011;9956;51.006;13.670;2022-11-22T16:57:28;22.48;;;17.77;;
19617;SDS011;9956;51.006;13.670;2022-11-22T17:02:29;28.98;;;18.65;;
19617;SDS011;9956;51.006;13.670;2022-11-22T17:07:29;26.42;;;19.20;;
19617;SDS011;9956;51.006;13.670;2022-11-22T17:12:29;27.85;;;19.88;;
19617;SDS011;9956;51.006;13.670;2022-11-22T17:17:30;25.35;;;20.02;;
19617;SDS011;9956;51.006;13.670;2022-11-22T17:22:30;27.60;;;20.85;;
19617;SDS011;9956;51.006;13.670;2022-11-22T17:27:31;31.58;;;24.77;;
19617;SDS011;9956;51.006;13.670;2022-11-22T17:32:32;26.48;;;19.38;;
19617;SDS011;9956;51.006;13.670;2022-11-22T17:37:32;27.90;;;19.63;;
19617;SDS011;9956;51.006;13.670;2022-11-22T17:42:33;30.13;;;22.38;;
19617;SDS011;9956;51.006;13.670;2022-11-22T17:47:33;28.23;;;20.52;;
19617;SDS011;9956;51.006;13.670;2022-11-22T17:52:34;28.25;;;18.95;;
19617;SDS011;9956;51.006;13.670;2022-11-22T17:57:35;32.53;;;19.83;;
19617;SDS011;9956;51.006;13.670;2022-11-22T18:02:35;34.83;;;23.10;;
19617;SDS011;9956;51.006;13.670;2022-11-22T18:07:36;29.45;;;21.52;;
19617;SDS011;9956;51.006;13.670;2022-11-22T18:12:39;28.80;;;20.13;;
19617;SDS011;9956;51.006;13.670;2022-11-22T18:17:39;31.05;;;20.58;;
19617;SDS011;9956;51.006;13.670;2022-11-22T18:22:40;30.85;;;22.23;;
19617;SDS011;9956;51.006;13.670;2022-11-22T18:27:40;30.90;;;22.70;;
19617;SDS011;9956;51.006;13.670;2022-11-22T18:32:41;34.95;;;24.83;;
19617;SDS011;9956;51.006;13.670;2022-11-22T18:37:41;35.78;;;22.33;;
19617;SDS011;9956;51.006;13.670;2022-11-22T18:42:42;32.92;;;22.40;;
19617;SDS011;9956;51.006;13.670;2022-11-22T18:47:45;31.73;;;23.67;;
19617;SDS011;9956;51.006;13.670;2022-11-22T18:52:45;37.90;;;27.48;;
19617;SDS011;9956;51.006;13.670;2022-11-22T18:57:47;34.42;;;28.17;;
19617;SDS011;9956;51.006;13.670;2022-11-22T19:02:50;35.70;;;28.55;;
19617;SDS011;9956;51.006;13.670;2022-11-22T19:07:51;34.72;;;26.95;;
19617;SDS011;9956;51.006;13.670;2022-11-22T19:12:51;33.08;;;27.13;;
19617;SDS011;9956;51.006;13.670;2022-11-22T19:17:51;33.85;;;28.63;;
19617;SDS011;9956;51.006;13.670;2022-11-22T19:22:52;47.47;;;34.60;;
19617;SDS011;9956;51.006;13.670;2022-11-22T19:27:52;65.32;;;45.63;;
19617;SDS011;9956;51.006;13.670;2022-11-22T19:32:54;58.40;;;45.40;;
19617;SDS011;9956;51.006;13.670;2022-11-22T19:37:55;37.85;;;29.00;;
19617;SDS011;9956;51.006;13.670;2022-11-22T19:42:55;50.95;;;36.72;;
19617;SDS011;9956;51.006;13.670;2022-11-22T19:47:56;43.65;;;30.63;;
19617;SDS011;9956;51.006;13.670;2022-11-22T19:52:56;40.58;;;30.48;;
19617;SDS011;9956;51.006;13.670;2022-11-22T19:57:57;38.72;;;30.88;;
19617;SDS011;9956;51.006;13.670;2022-11-22T20:02:57;40.83;;;28.13;;
19617;SDS011;9956;51.006;13.670;2022-11-22T20:07:58;41.92;;;31.52;;
19617;SDS011;9956;51.006;13.670;2022-11-22T20:12:59;50.72;;;39.03;;
19617;SDS011;9956;51.006;13.670;2022-11-22T20:17:59;52.83;;;43.42;;
19617;SDS011;9956;51.006;13.670;2022-11-22T20:22:59;50.35;;;41.28;;
19617;SDS011;9956;51.006;13.670;2022-11-22T20:28:00;27.92;;;17.30;;
19617;SDS011;9956;51.006;13.670;2022-11-22T20:33:01;29.30;;;20.85;;
19617;SDS011;9956;51.006;13.670;2022-11-22T20:38:01;25.50;;;19.17;;
19617;SDS011;9956;51.006;13.670;2022-11-22T20:43:01;30.73;;;22.73;;
19617;SDS011;9956;51.006;13.670;2022-11-22T20:48:02;27.13;;;20.10;;
19617;SDS011;9956;51.006;13.670;2022-11-22T20:53:02;26.00;;;19.52;;
19617;SDS011;9956;51.006;13.670;2022-11-22T20:58:03;26.52;;;18.80;;
19617;SDS011;9956;51.006;13.670;2022-11-22T21:03:03;33.10;;;22.95;;
19617;SDS011;9956;51.006;13.670;2022-11-22T21:08:04;29.77;;;22.00;;
19617;SDS011;9956;51.006;13.670;2022-11-22T21:13:04;34.63;;;21.95;;
19617;SDS011;9956;51.006;13.670;2022-11-22T21:18:07;26.95;;;18.83;;
19617;SDS011;9956;51.006;13.670;2022-11-22T21:23:08;29.60;;;19.83;;
19617;SDS011;9956;51.006;13.670;2022-11-22T21:28:09;26.00;;;18.75;;
19617;SDS011;9956;51.006;13.670;2022-11-22T21:33:09;23.85;;;16.77;;
19617;SDS011;9956;51.006;13.670;2022-11-22T21:38:10;25.60;;;17.20;;
19617;SDS011;9956;51.006;13.670;2022-11-22T21:43:12;28.23;;;19.17;;
19617;SDS011;9956;51.006;13.670;2022-11-22T21:48:12;26.90;;;18.20;;
19617;SDS011;9956;51.006;13.670;2022-11-22T21:53:13;26.67;;;17.73;;
19617;SDS011;9956;51.006;13.670;2022-11-22T21:58:13;25.35;;;16.23;;
19617;SDS011;9956;51.006;13.670;2022-11-22T22:03:14;21.73;;;15.55;;
19617;SDS011;9956;51.006;13.670;2022-11-22T22:08:15;19.92;;;13.75;;
19617;SDS011;9956;51.006;13.670;2022-11-22T22:13:16;17.80;;;13.27;;
19617;SDS011;9956;51.006;13.670;2022-11-22T22:18:18;23.55;;;15.57;;
19617;SDS011;9956;51.006;13.670;2022-11-22T22:23:18;18.80;;;13.15;;
19617;SDS011;9956;51.006;13.670;2022-11-22T22:28:19;21.45;;;14.43;;
19617;SDS011;9956;51.006;13.670;2022-11-22T22:33:19;22.05;;;15.45;;
19617;SDS011;9956;51.006;13.670;2022-11-22T22:38:20;23.70;;;16.77;;
19617;SDS011;9956;51.006;13.670;2022-11-22T22:43:23;23.23;;;15.40;;
19617;SDS011;9956;51.006;13.670;2022-11-22T22:48:28;20.63;;;14.52;;
19617;SDS011;9956;51.006;13.670;2022-11-22T22:53:29;22.75;;;14.23;;
19617;SDS011;9956;51.006;13.670;2022-11-22T22:58:31;20.52;;;13.80;;
19617;SDS011;9956;51.006;13.670;2022-11-22T23:03:31;22.83;;;14.63;;
19617;SDS011;9956;51.006;13.670;2022-11-22T23:08:32;23.75;;;15.07;;
19617;SDS011;9956;51.006;13.670;2022-11-22T23:13:33;21.20;;;14.98;;
19617;SDS011;9956;51.006;13.670;2022-11-22T23:18:39;21.05;;;13.55;;
19617;SDS011;9956;51.006;13.670;2022-11-22T23:23:40;21.27;;;13.93;;
19617;SDS011;9956;51.006;13.670;2022-11-22T23:28:41;22.25;;;15.20;;
19617;SDS011;9956;51.006;13.670;2022-11-22T23:33:42;22.52;;;15.05;;
19617;SDS011;9956;51.006;13.670;2022-11-22T23:38:42;23.05;;;14.27;;
19617;SDS011;9956;51.006;13.670;2022-11-22T23:43:43;21.92;;;14.00;;
19617;SDS011;9956;51.006;13.670;2022-11-22T23:48:44;22.45;;;14.25;;
19617;SDS011;9956;51.006;13.670;2022-11-22T23:53:45;19.02;;;13.93;;
19617;SDS011;9956;51.006;13.670;2022-11-22T23:58:45;23.77;;;13.57;;
